Time,TemperatureF,DewpointF,PressureIn,WindDirection,WindDirectionDegrees,WindSpeedMPH,WindSpeedGustMPH,Humidity,HourlyPrecipIn,Conditions,Clouds,dailyrainin,SoftwareType,DateUTC
2013-09-27 00:00:00,71.9,69.4,29.76,NE,45,0.0,1.0,92,0.00,,,0.00,VWS V14.01,2013-09-27 04:00:00,
2013-09-27 00:30:00,71.6,69.8,29.76,NE,45,0.0,2.0,94,0.00,,,0.00,VWS V14.01,2013-09-27 04:30:00,
2013-09-27 01:00:00,72.0,70.2,29.76,NE,45,0.0,3.0,94,0.00,,,0.00,VWS V14.01,2013-09-27 05:00:00,
2013-09-27 01:30:00,72.0,70.2,29.77,NE,45,0.0,2.0,94,0.00,,,0.00,VWS V14.01,2013-09-27 05:30:00,
2013-09-27 02:00:00,71.7,70.2,29.76,NE,45,0.0,4.0,95,0.00,,,0.00,VWS V14.01,2013-09-27 06:00:00,
2013-09-27 02:30:00,71.5,70.0,29.75,NE,45,0.0,4.0,95,0.00,,,0.00,VWS V14.01,2013-09-27 06:30:00,
2013-09-27 03:00:00,71.2,69.7,29.75,NE,45,0.0,2.0,95,0.00,,,0.00,VWS V14.01,2013-09-27 07:00:00,
2013-09-27 03:30:00,71.0,69.5,29.74,NE,45,0.0,3.0,95,0.00,,,0.00,VWS V14.01,2013-09-27 07:30:00,
2013-09-27 04:00:00,70.5,69.0,29.74,NE,45,0.0,1.0,95,0.00,,,0.00,VWS V14.01,2013-09-27 08:00:00,
2013-09-27 04:30:00,69.7,68.5,29.74,NE,45,0.0,0.0,96,0.00,,,0.00,VWS V14.01,2013-09-27 08:30:00,
2013-09-27 05:00:00,68.9,68.0,29.75,NE,45,0.0,0.0,97,0.00,,,0.00,VWS V14.01,2013-09-27 09:00:00,
2013-09-27 05:30:00,68.6,68.0,29.76,NE,45,0.0,1.0,98,0.00,,,0.00,VWS V14.01,2013-09-27 09:30:00,
2013-09-27 06:00:00,68.2,67.6,29.76,NE,45,0.0,1.0,98,0.00,,,0.00,VWS V14.01,2013-09-27 10:00:00,
2013-09-27 06:30:00,68.3,67.7,29.77,NE,45,0.0,3.0,98,0.00,,,0.00,VWS V14.01,2013-09-27 10:30:00,
2013-09-27 07:00:00,68.0,67.4,29.78,NE,45,0.0,2.0,98,0.00,,,0.00,VWS V14.01,2013-09-27 11:00:00,
2013-09-27 07:30:00,68.7,68.4,29.79,North,0,1.0,7.0,99,0.00,,,0.00,VWS V14.01,2013-09-27 11:30:00,
2013-09-27 08:00:00,69.8,69.8,29.79,NNW,338,1.0,7.0,100,0.00,,,0.00,VWS V14.01,2013-09-27 12:00:00,
2013-09-27 08:30:00,70.5,70.5,29.80,North,0,1.0,7.0,100,0.00,,,0.00,VWS V14.01,2013-09-27 12:30:00,
2013-09-27 09:00:00,71.0,71.0,29.81,North,0,2.0,10.0,100,0.00,,,0.00,VWS V14.01,2013-09-27 13:00:00,
2013-09-27 09:30:00,71.6,71.3,29.82,North,0,3.0,11.0,99,0.00,,,0.00,VWS V14.01,2013-09-27 13:30:00,
2013-09-27 10:00:00,72.1,70.9,29.82,NW,315,3.0,11.0,96,0.00,,,0.00,VWS V14.01,2013-09-27 14:00:00,
2013-09-27 10:30:00,72.8,70.3,29.83,NNE,22,3.0,10.0,92,0.00,,,0.00,VWS V14.01,2013-09-27 14:30:00,
2013-09-27 11:00:00,73.9,70.5,29.83,North,0,3.0,12.0,89,0.00,,,0.00,VWS V14.01,2013-09-27 15:00:00,
2013-09-27 11:30:00,74.9,70.4,29.82,North,0,3.0,11.0,86,0.00,,,0.00,VWS V14.01,2013-09-27 15:30:00,
2013-09-27 12:00:00,76.0,70.5,29.82,WNW,292,4.0,12.0,83,0.00,,,0.00,VWS V14.01,2013-09-27 16:00:00,
2013-09-27 12:30:00,76.8,70.5,29.81,WNW,292,4.0,13.0,81,0.00,,,0.00,VWS V14.01,2013-09-27 16:30:00,
2013-09-27 13:00:00,78.7,70.5,29.80,NNE,22,3.0,12.0,76,0.00,,,0.00,VWS V14.01,2013-09-27 17:00:00,
2013-09-27 13:30:00,80.6,71.2,29.79,NNE,22,4.0,13.0,73,0.00,,,0.00,VWS V14.01,2013-09-27 17:30:00,
2013-09-27 14:00:00,82.2,72.3,29.78,North,0,2.0,12.0,72,0.00,,,0.00,VWS V14.01,2013-09-27 18:00:00,
2013-09-27 14:30:00,83.1,70.6,29.76,NNE,22,3.0,10.0,66,0.00,,,0.00,VWS V14.01,2013-09-27 18:30:00,
2013-09-27 15:00:00,84.4,70.9,29.75,NE,45,3.0,10.0,64,0.00,,,0.00,VWS V14.01,2013-09-27 19:00:00,
2013-09-27 15:30:00,83.9,73.9,29.75,NNE,22,4.0,17.0,72,0.00,,,0.00,VWS V14.01,2013-09-27 19:30:00,
2013-09-27 16:00:00,84.6,72.4,29.75,NE,45,5.0,14.0,67,0.00,,,0.00,VWS V14.01,2013-09-27 20:00:00,
2013-09-27 16:30:00,84.8,71.7,29.75,NE,45,5.0,14.0,65,0.00,,,0.00,VWS V14.01,2013-09-27 20:30:00,
2013-09-27 17:00:00,85.2,71.2,29.75,ENE,68,8.0,19.0,63,0.00,,,0.00,VWS V14.01,2013-09-27 21:00:00,
2013-09-27 17:30:00,84.5,72.8,29.76,ENE,68,7.0,17.0,68,0.00,,,0.00,VWS V14.01,2013-09-27 21:30:00,
2013-09-27 18:00:00,81.6,72.1,29.78,ENE,68,7.0,16.0,73,0.00,,,0.00,VWS V14.01,2013-09-27 22:00:00,
2013-09-27 18:30:00,79.2,70.6,29.79,ENE,68,8.0,17.0,75,0.00,,,0.00,VWS V14.01,2013-09-27 22:30:00,
2013-09-27 19:00:00,77.8,70.4,29.79,ENE,68,6.0,18.0,78,0.00,,,0.00,VWS V14.01,2013-09-27 23:00:00,
2013-09-27 19:30:00,76.7,70.4,29.80,ENE,68,4.0,10.0,81,0.00,,,0.00,VWS V14.01,2013-09-27 23:30:00,
2013-09-27 20:00:00,76.6,69.6,29.79,ENE,68,3.0,11.0,79,0.00,,,0.00,VWS V14.01,2013-09-28 00:00:00,
2013-09-27 20:30:00,77.0,70.7,29.81,ENE,68,3.0,11.0,81,0.00,,,0.00,VWS V14.01,2013-09-28 00:30:00,
2013-09-27 21:00:00,76.4,72.2,29.82,ENE,68,3.0,12.0,87,0.00,,,0.00,VWS V14.01,2013-09-28 01:00:00,
2013-09-27 21:30:00,76.2,69.6,29.83,ENE,68,6.0,14.0,80,0.00,,,0.00,VWS V14.01,2013-09-28 01:30:00,
2013-09-27 22:00:00,75.6,69.0,29.83,ENE,68,5.0,10.0,80,0.00,,,0.00,VWS V14.01,2013-09-28 02:00:00,
2013-09-27 22:30:00,75.3,68.3,29.84,ENE,68,4.0,10.0,79,0.00,,,0.00,VWS V14.01,2013-09-28 02:30:00,
2013-09-27 23:00:00,75.7,68.4,29.84,ENE,68,4.0,12.0,78,0.00,,,0.00,VWS V14.01,2013-09-28 03:00:00,
2013-09-27 23:30:00,75.7,69.1,29.85,ENE,68,3.0,7.0,80,0.00,,,0.00,VWS V14.01,2013-09-28 03:30:00,